Time;durP1;ratioP1;P1;durP2;ratioP2;P2;SDS_P1;SDS_P2;PMS_P1;PMS_P2;Temp;Humidity;BMP_temperature;BMP_pressure;BME280_temperature;BME280_humidity;BME280_pressure;Samples;Min_cycle;Max_cycle;Signal;HPM_P1;HPM_P2
2022/04/17 00:01:55;;;;;;;2.07;1.50;;;8.90;99.90;;;;;;6205841;23;20191;-91
2022/04/17 00:04:29;;;;;;;1.57;1.40;;;9.00;99.90;;;;;;6204322;23;20199;-89
2022/04/17 00:07:01;;;;;;;1.97;1.43;;;9.00;99.90;;;;;;6194109;23;20189;-90
2022/04/17 00:09:32;;;;;;;1.47;1.33;;;8.70;99.90;;;;;;6202036;23;20654;-90
2022/04/17 00:12:07;;;;;;;2.60;1.50;;;8.40;99.90;;;;;;6201627;23;20292;-90
2022/04/17 00:14:43;;;;;;;1.60;1.40;;;8.40;99.90;;;;;;6192773;23;20200;-89
2022/04/17 00:17:16;;;;;;;1.83;1.30;;;8.40;99.90;;;;;;6193541;23;20164;-92
2022/04/17 00:19:49;;;;;;;1.47;1.37;;;8.50;99.90;;;;;;6192991;23;20208;-91
2022/04/17 00:22:23;;;;;;;2.80;1.40;;;8.40;99.90;;;;;;6199610;23;20168;-89
2022/04/17 00:24:55;;;;;;;1.30;1.10;;;8.10;99.90;;;;;;6187124;23;20194;-90
2022/04/17 00:27:29;;;;;;;1.70;1.40;;;8.10;99.90;;;;;;6125111;23;20190;-91
2022/04/17 00:30:02;;;;;;;1.60;0.90;;;8.10;99.90;;;;;;6121775;23;20530;-91
2022/04/17 00:32:33;;;;;;;1.30;1.20;;;7.70;99.90;;;;;;6097818;23;20210;-90
2022/04/17 00:35:06;;;;;;;2.63;1.67;;;7.60;99.90;;;;;;6110049;23;20180;-89
2022/04/17 00:37:41;;;;;;;1.50;1.10;;;7.60;99.90;;;;;;6106490;23;20182;-90
2022/04/17 00:40:14;;;;;;;0.70;0.67;;;7.40;99.90;;;;;;6089491;23;20188;-89
2022/04/17 00:42:49;;;;;;;0.90;0.80;;;7.50;99.90;;;;;;6113588;23;20171;-89
2022/04/17 00:45:22;;;;;;;1.27;0.90;;;7.60;99.90;;;;;;6103479;23;20237;-90
2022/04/17 00:47:54;;;;;;;0.47;0.47;;;7.70;99.90;;;;;;6101969;23;20175;-90
2022/04/17 00:50:26;;;;;;;1.10;0.77;;;7.30;99.90;;;;;;6101933;23;20202;-90
2022/04/17 00:52:57;;;;;;;0.67;0.50;;;7.30;99.90;;;;;;6110255;23;20198;-91
2022/04/17 00:55:29;;;;;;;0.40;0.40;;;7.10;99.90;;;;;;6110626;23;20178;-91
2022/04/17 00:58:06;;;;;;;0.70;0.70;;;6.90;99.90;;;;;;6104145;23;20232;-90
2022/04/17 01:00:38;;;;;;;0.50;0.50;;;6.90;99.90;;;;;;6104021;23;20171;-91
2022/04/17 01:03:12;;;;;;;0.60;0.50;;;6.60;99.90;;;;;;6105000;23;20179;-92
2022/04/17 01:05:46;;;;;;;0.43;0.43;;;6.40;99.90;;;;;;6107560;23;20181;-92
2022/04/17 01:08:20;;;;;;;0.43;0.43;;;6.40;99.90;;;;;;6112363;23;20172;-92
2022/04/17 01:10:52;;;;;;;0.57;0.57;;;6.30;99.90;;;;;;6114711;23;20206;-91
2022/04/17 01:13:26;;;;;;;1.40;0.53;;;6.30;99.90;;;;;;6123186;23;20171;-91
2022/04/17 01:15:59;;;;;;;2.33;0.70;;;6.30;99.90;;;;;;6123077;23;20163;-92
2022/04/17 01:18:52;;;;;;;0.90;0.73;;;6.20;99.90;;;;;;6098318;23;20175;-90
2022/04/17 01:21:27;;;;;;;0.60;0.60;;;6.30;99.90;;;;;;6117129;23;20166;-90
2022/04/17 01:26:58;;;;;;;1.80;0.80;;;6.50;99.90;;;;;;6113942;23;20187;-90
2022/04/17 01:29:33;;;;;;;0.80;0.60;;;6.50;99.90;;;;;;6116282;23;20167;-90
2022/04/17 01:32:05;;;;;;;0.67;0.50;;;6.60;99.90;;;;;;6114711;23;20519;-91
2022/04/17 01:34:37;;;;;;;1.80;0.70;;;6.70;99.90;;;;;;6116643;23;20182;-89
2022/04/17 01:37:14;;;;;;;0.80;0.80;;;6.80;99.90;;;;;;6117300;23;20194;-89
2022/04/17 01:39:46;;;;;;;1.93;0.80;;;6.80;99.90;;;;;;6122076;23;20230;-90
2022/04/17 01:44:51;;;;;;;0.90;0.70;;;6.90;99.90;;;;;;6175920;23;20187;-91
2022/04/17 01:47:24;;;;;;;0.50;0.50;;;6.90;99.90;;;;;;6147289;23;20172;-88
2022/04/17 01:49:57;;;;;;;0.83;0.80;;;7.00;99.90;;;;;;6176082;23;20178;-90
2022/04/17 01:52:40;;;;;;;2.20;0.63;;;7.10;99.90;;;;;;6174486;23;20204;-90
2022/04/17 01:55:15;;;;;;;2.83;0.90;;;7.20;99.90;;;;;;6147638;23;20230;-89
2022/04/17 01:57:51;;;;;;;0.83;0.63;;;7.20;99.90;;;;;;6163545;23;20257;-90
2022/04/17 02:00:22;;;;;;;0.80;0.80;;;7.20;99.90;;;;;;6175298;23;20188;-90
2022/04/17 02:02:54;;;;;;;0.70;0.67;;;7.00;99.90;;;;;;6162161;23;20184;-90
2022/04/17 02:05:25;;;;;;;1.00;0.90;;;6.90;99.90;;;;;;6163474;23;20213;-91
2022/04/17 02:07:59;;;;;;;0.67;0.50;;;6.60;99.90;;;;;;6175892;23;20223;-90
2022/04/17 02:10:33;;;;;;;0.80;0.80;;;6.60;99.90;;;;;;6172772;23;20173;-90
2022/04/17 02:13:05;;;;;;;1.50;0.63;;;6.60;99.90;;;;;;6175068;23;20189;-91
2022/04/17 02:15:37;;;;;;;1.10;1.00;;;6.50;99.90;;;;;;6163982;23;20180;-92
2022/04/17 02:18:10;;;;;;;1.90;0.90;;;6.30;99.90;;;;;;6139820;23;20193;-92
2022/04/17 02:20:45;;;;;;;0.90;0.80;;;6.30;99.90;;;;;;6178089;23;20160;-92
2022/04/17 02:23:49;;;;;;;1.10;1.00;;;6.20;99.90;;;;;;6178800;23;20241;-90
2022/04/17 02:26:26;;;;;;;2.30;1.00;;;6.30;99.90;;;;;;6179044;23;20177;-90
2022/04/17 02:28:58;;;;;;;1.70;0.90;;;6.40;99.90;;;;;;6164227;23;20178;-91
2022/04/17 02:31:30;;;;;;;1.00;0.70;;;6.30;99.90;;;;;;6172539;23;20213;-91
2022/04/17 02:34:14;;;;;;;1.33;0.70;;;6.30;99.90;;;;;;6166002;23;20212;-91
2022/04/17 02:36:46;;;;;;;1.70;0.90;;;6.20;99.90;;;;;;6162870;23;20188;-92
2022/04/17 02:39:17;;;;;;;1.43;0.80;;;6.10;99.90;;;;;;6160184;23;20185;-90
2022/04/17 02:41:52;;;;;;;1.17;1.07;;;6.10;99.90;;;;;;6160935;23;20733;-91
2022/04/17 02:44:24;;;;;;;0.90;0.70;;;6.00;99.90;;;;;;6161506;23;20625;-91
2022/04/17 02:52:29;;;;;;;1.00;0.83;;;5.80;99.90;;;;;;6175175;23;20205;-90
2022/04/17 02:55:11;;;;;;;1.67;0.90;;;6.00;99.90;;;;;;6154506;23;20176;-90
2022/04/17 02:58:02;;;;;;;0.90;0.80;;;5.80;99.90;;;;;;6172716;23;20217;-91
2022/04/17 03:05:36;;;;;;;1.27;0.70;;;5.60;99.90;;;;;;6181140;23;20182;-90
2022/04/17 03:06:19;;;;;;;1.43;1.20;;;5.40;99.90;;;;;;6183040;23;20166;-90
2022/04/17 03:08:51;;;;;;;0.73;0.70;;;5.40;99.90;;;;;;6182440;23;20165;-91
2022/04/17 03:11:25;;;;;;;0.57;0.57;;;5.30;99.90;;;;;;6182702;23;20209;-92
2022/04/17 03:14:15;;;;;;;1.27;0.80;;;5.30;99.90;;;;;;6158093;23;20180;-91
2022/04/17 03:25:33;;;;;;;1.67;0.87;;;5.30;99.90;;;;;;6182195;23;20189;-90
2022/04/17 03:28:06;;;;;;;1.47;0.90;;;5.20;99.90;;;;;;6157054;23;20177;-89
2022/04/17 03:30:41;;;;;;;3.80;1.13;;;5.20;99.90;;;;;;6183176;23;20185;-92
2022/04/17 03:33:14;;;;;;;1.33;0.70;;;5.20;99.90;;;;;;6182652;23;20239;-92
2022/04/17 03:35:52;;;;;;;1.73;0.80;;;5.10;99.90;;;;;;6180262;23;20164;-92
2022/04/17 03:38:25;;;;;;;1.10;0.70;;;5.10;99.90;;;;;;6177108;23;20181;-93
2022/04/17 03:40:59;;;;;;;1.03;0.90;;;5.10;99.90;;;;;;6176914;23;20177;-90
2022/04/17 03:43:35;;;;;;;1.33;0.80;;;5.10;99.90;;;;;;6174623;23;20177;-92
2022/04/17 03:46:10;;;;;;;1.13;0.70;;;5.10;99.90;;;;;;6176559;23;20220;-90
2022/04/17 03:48:44;;;;;;;1.10;1.00;;;5.10;99.90;;;;;;6177452;23;20212;-91
2022/04/17 03:51:16;;;;;;;0.93;0.83;;;5.10;99.90;;;;;;6204742;23;20177;-92
2022/04/17 03:53:50;;;;;;;0.97;0.80;;;5.10;99.90;;;;;;6203320;23;20205;-91
2022/04/17 03:56:24;;;;;;;2.33;0.80;;;5.20;99.90;;;;;;6203759;23;20169;-92
2022/04/17 03:58:58;;;;;;;0.93;0.90;;;5.20;99.90;;;;;;6203906;23;20181;-90
2022/04/17 04:01:31;;;;;;;1.63;0.80;;;5.20;99.90;;;;;;6198824;23;20177;-90
2022/04/17 04:04:12;;;;;;;1.00;0.90;;;5.20;99.90;;;;;;6204451;23;20173;-91
2022/04/17 04:06:45;;;;;;;1.57;0.90;;;5.20;99.90;;;;;;6202040;23;20177;-90
2022/04/17 04:20:44;;;;;;;1.43;1.33;;;4.60;99.90;;;;;;6201666;23;20181;-92
2022/04/17 04:23:21;;;;;;;2.93;1.30;;;4.70;99.90;;;;;;6198450;23;20251;-92
2022/04/17 04:28:39;;;;;;;1.70;1.30;;;4.70;99.90;;;;;;6190118;23;20208;-91
2022/04/17 04:34:12;;;;;;;2.20;1.57;;;4.90;99.90;;;;;;6193826;23;20235;-91
2022/04/17 04:36:44;;;;;;;2.57;1.93;;;4.80;99.90;;;;;;6191731;23;20203;-92
2022/04/17 04:39:16;;;;;;;2.73;1.20;;;4.90;99.90;;;;;;6190632;23;20177;-92
2022/04/17 04:41:51;;;;;;;1.63;1.20;;;4.80;99.90;;;;;;6192184;23;20175;-91
2022/04/17 04:44:24;;;;;;;1.97;1.23;;;4.80;99.90;;;;;;6193011;23;20185;-92
2022/04/17 04:46:54;;;;;;;1.73;1.37;;;4.80;99.90;;;;;;6192314;23;20235;-91
2022/04/17 04:49:33;;;;;;;1.17;1.07;;;4.80;99.90;;;;;;6189808;23;20555;-91
2022/04/17 04:52:06;;;;;;;1.30;1.20;;;4.80;99.90;;;;;;6196613;23;20168;-91
2022/04/17 04:54:40;;;;;;;1.53;1.00;;;4.80;99.90;;;;;;6192420;23;20196;-92
2022/04/17 04:57:11;;;;;;;2.50;1.30;;;4.70;99.90;;;;;;6189989;23;20184;-95
2022/04/17 04:59:43;;;;;;;1.20;1.10;;;4.70;99.90;;;;;;6190009;23;20200;-90
2022/04/17 05:02:18;;;;;;;2.17;1.30;;;4.60;99.90;;;;;;6192100;23;20518;-90
2022/04/17 05:04:51;;;;;;;1.53;1.30;;;4.60;99.90;;;;;;6190604;23;20192;-91
2022/04/17 05:07:23;;;;;;;4.90;1.23;;;4.60;99.90;;;;;;6195889;23;20166;-91
2022/04/17 05:09:55;;;;;;;2.30;1.40;;;4.50;99.90;;;;;;6189548;23;20177;-92
2022/04/17 05:12:27;;;;;;;1.90;1.37;;;4.40;99.90;;;;;;6189890;23;20192;-92
2022/04/17 05:14:58;;;;;;;1.40;1.30;;;4.40;99.90;;;;;;6192540;23;20184;-93
2022/04/17 05:17:30;;;;;;;3.53;1.40;;;4.40;99.90;;;;;;6189455;23;20181;-93
2022/04/17 05:20:05;;;;;;;1.60;1.47;;;4.30;99.90;;;;;;6201846;23;20161;-91
2022/04/17 05:22:38;;;;;;;1.93;1.30;;;4.30;99.90;;;;;;6198585;23;20909;-94
2022/04/17 05:25:16;;;;;;;1.57;1.40;;;4.30;99.90;;;;;;6191950;23;20243;-93
2022/04/17 05:27:47;;;;;;;2.07;1.17;;;4.20;99.90;;;;;;6189576;23;20449;-90
2022/04/17 05:30:19;;;;;;;1.80;1.70;;;4.20;99.90;;;;;;6191276;23;20565;-91
2022/04/17 05:32:51;;;;;;;2.00;1.37;;;4.20;99.90;;;;;;6193828;23;20216;-93
2022/04/17 05:35:24;;;;;;;2.40;1.10;;;4.20;99.90;;;;;;6194158;23;20204;-91
2022/04/17 05:37:56;;;;;;;2.00;1.60;;;4.20;99.90;;;;;;6205807;23;20171;-91
2022/04/17 05:40:31;;;;;;;1.77;1.33;;;4.20;99.90;;;;;;6214150;23;20168;-91
2022/04/17 05:43:16;;;;;;;1.80;1.57;;;4.10;99.90;;;;;;6208854;23;20173;-91
2022/04/17 05:45:48;;;;;;;2.10;1.60;;;4.10;99.90;;;;;;6197145;23;20181;-92
2022/04/17 05:48:21;;;;;;;2.30;1.57;;;4.10;99.90;;;;;;6210776;23;20173;-92
2022/04/17 05:50:56;;;;;;;2.47;2.27;;;4.10;99.90;;;;;;6213123;23;20176;-92
2022/04/17 05:53:28;;;;;;;2.07;1.33;;;4.10;99.90;;;;;;6199333;23;20209;-92
2022/04/17 05:56:01;;;;;;;2.10;1.60;;;4.10;99.90;;;;;;6194500;23;20237;-93
2022/04/17 05:58:33;;;;;;;1.60;1.50;;;4.10;99.90;;;;;;6196820;23;20173;-93
2022/04/17 06:01:04;;;;;;;1.73;1.47;;;4.10;99.90;;;;;;6197802;23;20180;-92
2022/04/17 06:03:37;;;;;;;2.60;1.63;;;4.10;99.90;;;;;;6191824;23;20200;-92
2022/04/17 06:06:12;;;;;;;2.40;1.40;;;4.10;99.90;;;;;;6193336;23;20200;-92
2022/04/17 06:08:44;;;;;;;1.87;1.60;;;4.10;99.90;;;;;;6193696;23;20177;-92
2022/04/17 06:11:27;;;;;;;1.70;1.50;;;4.10;99.90;;;;;;6192446;23;20177;-92
2022/04/17 06:13:59;;;;;;;2.40;1.33;;;4.10;99.90;;;;;;6192788;23;20672;-90
2022/04/17 06:16:32;;;;;;;2.23;1.40;;;4.10;99.90;;;;;;6203315;23;20177;-92
2022/04/17 06:19:05;;;;;;;3.17;1.80;;;4.10;99.90;;;;;;6191811;23;20184;-93
2022/04/17 06:21:46;;;;;;;2.30;1.70;;;4.10;99.90;;;;;;6201964;23;20199;-92
2022/04/17 06:24:19;;;;;;;1.60;1.50;;;4.10;99.90;;;;;;6213394;23;20177;-93
2022/04/17 06:26:56;;;;;;;3.43;2.30;;;4.00;99.90;;;;;;6211377;23;20242;-91
2022/04/17 06:29:40;;;;;;;2.47;1.70;;;4.10;99.90;;;;;;6213109;23;20237;-93
2022/04/17 06:32:13;;;;;;;3.57;1.63;;;4.10;99.90;;;;;;6212940;23;20209;-92
2022/04/17 06:34:46;;;;;;;2.20;1.77;;;4.10;99.90;;;;;;6212835;23;20227;-93
2022/04/17 06:37:21;;;;;;;2.20;1.50;;;4.10;99.90;;;;;;6212458;23;20162;-94
2022/04/17 06:39:53;;;;;;;3.30;1.90;;;4.00;99.90;;;;;;6210109;23;20184;-92
2022/04/17 06:42:25;;;;;;;4.63;1.77;;;4.00;99.90;;;;;;6208423;23;20172;-93
2022/04/17 06:44:57;;;;;;;2.00;1.53;;;4.00;99.90;;;;;;6210513;23;20177;-92
2022/04/17 06:47:28;;;;;;;1.90;1.80;;;4.00;99.90;;;;;;6208942;23;20177;-93
2022/04/17 06:50:00;;;;;;;2.77;1.67;;;3.90;99.90;;;;;;6208438;23;20189;-93
2022/04/17 06:52:35;;;;;;;2.60;1.50;;;4.00;99.90;;;;;;6212731;23;20215;-92
2022/04/17 06:55:13;;;;;;;3.03;1.50;;;4.00;99.90;;;;;;6212791;23;20293;-93
2022/04/17 06:57:48;;;;;;;2.23;1.63;;;4.00;99.90;;;;;;6209276;23;20181;-93
2022/04/17 07:00:22;;;;;;;3.97;1.60;;;3.90;99.90;;;;;;6207992;23;20172;-92
2022/04/17 07:02:54;;;;;;;1.80;1.57;;;3.90;99.90;;;;;;6208549;23;20173;-91
2022/04/17 07:05:26;;;;;;;2.13;1.60;;;3.80;99.90;;;;;;6207303;23;20177;-91
2022/04/17 07:08:03;;;;;;;1.63;1.30;;;3.80;99.90;;;;;;6195458;23;20200;-91
2022/04/17 07:10:37;;;;;;;2.57;1.43;;;3.70;99.90;;;;;;6195550;23;20177;-90
2022/04/17 07:13:11;;;;;;;1.97;1.50;;;3.70;99.90;;;;;;6194497;23;20177;-93
2022/04/17 07:15:42;;;;;;;3.60;1.70;;;3.60;99.90;;;;;;6193689;23;20196;-91
2022/04/17 07:18:14;;;;;;;1.90;1.50;;;3.60;99.90;;;;;;6193135;23;20177;-91
2022/04/17 07:20:45;;;;;;;1.67;1.30;;;3.60;99.90;;;;;;6193295;23;20468;-92
2022/04/17 07:23:20;;;;;;;1.63;1.33;;;3.50;99.90;;;;;;6193951;23;20516;-92
2022/04/17 07:25:53;;;;;;;2.80;1.43;;;3.50;99.90;;;;;;6192003;23;20255;-91
2022/04/17 07:28:24;;;;;;;1.47;1.37;;;3.60;99.90;;;;;;6190418;23;20212;-93
2022/04/17 07:30:56;;;;;;;2.57;1.57;;;3.60;99.90;;;;;;6193652;23;20192;-93
2022/04/17 07:33:32;;;;;;;1.93;1.20;;;3.60;99.90;;;;;;6193649;23;20177;-90
2022/04/17 07:36:26;;;;;;;2.80;1.37;;;3.60;99.90;;;;;;6193238;23;20504;-90
2022/04/17 07:39:00;;;;;;;4.63;1.43;;;3.60;99.90;;;;;;6191796;23;20177;-92
2022/04/17 07:41:33;;;;;;;3.37;2.60;;;3.60;99.90;;;;;;6192984;23;20567;-92
2022/04/17 07:44:05;;;;;;;2.93;1.60;;;3.60;99.90;;;;;;6192268;23;20196;-91
2022/04/17 07:46:37;;;;;;;1.77;1.23;;;3.60;99.90;;;;;;6193953;23;20186;-92
2022/04/17 07:49:10;;;;;;;2.20;2.07;;;3.60;99.90;;;;;;6202684;23;20188;-92
2022/04/17 07:51:43;;;;;;;1.63;1.47;;;3.60;99.90;;;;;;6209049;23;20239;-91
2022/04/17 07:54:18;;;;;;;2.20;1.27;;;3.60;99.90;;;;;;6206546;23;20204;-92
2022/04/17 07:56:49;;;;;;;2.20;1.13;;;3.60;99.90;;;;;;6191929;23;20181;-92
2022/04/17 07:59:22;;;;;;;4.40;4.10;;;3.60;99.90;;;;;;6192734;23;20177;-91
2022/04/17 08:02:01;;;;;;;2.03;1.40;;;3.60;99.90;;;;;;6192454;23;20185;-92
2022/04/17 08:04:32;;;;;;;3.03;1.63;;;3.60;99.90;;;;;;6193108;23;20192;-93
2022/04/17 08:07:04;;;;;;;1.40;1.30;;;3.70;99.90;;;;;;6193161;23;20170;-93
2022/04/17 08:09:38;;;;;;;1.80;1.37;;;3.70;99.90;;;;;;6191064;23;20169;-91
2022/04/17 08:12:10;;;;;;;1.27;1.17;;;3.70;99.90;;;;;;6191028;23;20184;-92
2022/04/17 08:14:41;;;;;;;3.53;1.43;;;3.80;99.90;;;;;;6191452;23;20209;-91
2022/04/17 08:17:11;;;;;;;2.73;1.43;;;3.80;99.90;;;;;;6192690;23;20177;-95
2022/04/17 08:19:43;;;;;;;5.63;1.20;;;3.80;99.90;;;;;;6191981;23;20175;-91
2022/04/17 08:22:14;;;;;;;2.10;1.30;;;3.80;99.90;;;;;;6192464;23;20247;-92
2022/04/17 08:24:47;;;;;;;1.30;1.20;;;3.80;99.90;;;;;;6191111;23;20185;-92
2022/04/17 08:27:19;;;;;;;3.33;1.10;;;3.70;99.90;;;;;;6190513;23;20177;-92
2022/04/17 08:29:51;;;;;;;2.03;1.30;;;3.70;99.90;;;;;;6197265;23;20180;-92
2022/04/17 08:32:24;;;;;;;1.47;1.30;;;3.60;99.90;;;;;;6190885;23;20181;-93
2022/04/17 08:35:05;;;;;;;1.60;1.37;;;3.60;99.90;;;;;;6191859;23;20201;-91
2022/04/17 08:37:38;;;;;;;2.03;1.10;;;3.60;99.90;;;;;;6195352;23;20169;-92
2022/04/17 08:40:15;;;;;;;5.63;1.20;;;3.50;99.90;;;;;;6198605;23;20215;-91
2022/04/17 08:42:47;;;;;;;2.03;1.13;;;3.50;99.90;;;;;;6199736;23;20204;-92
2022/04/17 08:45:20;;;;;;;2.03;1.20;;;3.50;99.90;;;;;;6193930;23;20187;-91
2022/04/17 08:47:54;;;;;;;1.10;1.00;;;3.50;99.90;;;;;;6187866;23;20208;-92
2022/04/17 08:50:26;;;;;;;2.90;1.80;;;3.60;99.90;;;;;;6190263;23;20173;-92
2022/04/17 08:53:00;;;;;;;2.57;1.10;;;3.60;99.90;;;;;;6197833;23;20524;-93
2022/04/17 08:55:36;;;;;;;1.60;1.10;;;3.60;99.90;;;;;;6199371;23;20207;-93
2022/04/17 08:58:09;;;;;;;1.93;1.57;;;3.60;99.90;;;;;;6194912;23;20643;-92
2022/04/17 09:03:29;;;;;;;3.20;1.40;;;3.60;99.90;;;;;;6196162;23;20247;-92
2022/04/17 09:06:05;;;;;;;2.67;0.87;;;3.60;99.90;;;;;;6200691;23;20183;-92
2022/04/17 09:08:59;;;;;;;2.67;1.17;;;3.60;99.90;;;;;;6191536;23;20183;-93
2022/04/17 09:11:36;;;;;;;1.33;1.10;;;3.70;99.90;;;;;;6193833;23;20177;-91
2022/04/17 09:14:07;;;;;;;1.30;1.00;;;3.70;99.90;;;;;;6193065;23;20182;-91
2022/04/17 09:16:40;;;;;;;1.20;1.10;;;3.70;99.90;;;;;;6193231;23;20217;-91
2022/04/17 09:19:15;;;;;;;1.23;1.13;;;3.70;99.90;;;;;;6191980;23;20276;-91
2022/04/17 09:21:47;;;;;;;1.20;1.10;;;3.70;99.90;;;;;;6192596;23;20239;-90
2022/04/17 09:24:20;;;;;;;1.60;0.90;;;3.80;99.90;;;;;;6192704;23;20166;-90
2022/04/17 09:26:58;;;;;;;1.17;0.80;;;3.80;99.90;;;;;;6194155;23;20239;-90
2022/04/17 09:29:32;;;;;;;2.83;1.30;;;3.90;99.90;;;;;;6194217;23;20181;-92
2022/04/17 09:32:06;;;;;;;1.67;1.00;;;3.90;99.90;;;;;;6191740;23;20547;-91
2022/04/17 09:34:46;;;;;;;1.27;0.90;;;4.00;99.90;;;;;;6191406;23;20196;-92
2022/04/17 09:37:20;;;;;;;1.67;0.90;;;4.00;99.90;;;;;;6193896;23;20196;-91
2022/04/17 09:39:52;;;;;;;1.10;1.00;;;4.00;99.90;;;;;;6192428;23;20181;-92
2022/04/17 09:42:26;;;;;;;0.80;0.80;;;4.00;99.90;;;;;;6193041;23;20180;-92
2022/04/17 09:45:00;;;;;;;2.10;0.93;;;4.10;99.90;;;;;;6192424;23;20204;-92
2022/04/17 09:47:32;;;;;;;1.30;1.10;;;4.00;99.90;;;;;;6193748;23;20244;-90
2022/04/17 09:50:06;;;;;;;3.70;1.27;;;4.00;99.90;;;;;;6196754;23;20185;-91
2022/04/17 09:52:43;;;;;;;1.43;0.90;;;4.00;99.90;;;;;;6193319;23;20188;-90
2022/04/17 09:55:28;;;;;;;1.33;0.90;;;3.90;99.90;;;;;;6195047;23;20201;-91
2022/04/17 09:58:01;;;;;;;1.93;1.10;;;3.90;99.90;;;;;;6191201;23;20181;-91
2022/04/17 10:00:43;;;;;;;1.77;1.00;;;3.80;99.90;;;;;;6204500;23;20283;-91
2022/04/17 10:03:16;;;;;;;3.00;1.33;;;3.80;99.90;;;;;;6211295;23;20177;-91
2022/04/17 10:05:50;;;;;;;1.50;1.03;;;3.80;99.90;;;;;;6210597;23;20176;-92
2022/04/17 10:08:21;;;;;;;2.37;1.20;;;3.80;99.90;;;;;;6202180;23;20268;-90
2022/04/17 10:10:54;;;;;;;1.73;1.10;;;3.70;99.90;;;;;;6194216;23;20275;-91
2022/04/17 10:13:32;;;;;;;1.73;0.80;;;3.70;99.90;;;;;;6192015;23;20635;-92
2022/04/17 10:16:08;;;;;;;1.20;1.07;;;3.70;99.90;;;;;;6192337;23;20200;-92
2022/04/17 10:18:45;;;;;;;1.53;1.00;;;3.60;99.90;;;;;;6192669;23;20176;-92
2022/04/17 10:21:18;;;;;;;2.70;1.03;;;3.60;99.90;;;;;;6192708;23;20451;-91
2022/04/17 10:23:54;;;;;;;2.77;1.23;;;3.60;99.90;;;;;;6192293;23;20537;-92
2022/04/17 10:26:28;;;;;;;2.23;0.80;;;3.50;99.90;;;;;;6198320;23;20189;-89
2022/04/17 10:29:07;;;;;;;1.80;0.93;;;3.50;99.90;;;;;;6201816;23;20177;-90
2022/04/17 10:31:50;;;;;;;1.83;1.20;;;3.60;99.90;;;;;;6195446;23;20177;-91
2022/04/17 10:35:00;;;;;;;1.03;0.80;;;3.60;99.90;;;;;;6195275;23;20256;-91
2022/04/17 10:38:06;;;;;;;2.23;1.10;;;3.60;99.90;;;;;;6191191;23;20184;-93
2022/04/17 10:40:38;;;;;;;1.07;0.90;;;3.70;99.90;;;;;;6193731;23;20188;-92
2022/04/17 10:43:10;;;;;;;1.33;0.90;;;3.60;99.90;;;;;;6192362;23;20228;-91
2022/04/17 10:46:11;;;;;;;2.40;1.00;;;3.60;99.90;;;;;;6192312;23;20188;-91
2022/04/17 10:48:47;;;;;;;2.23;1.03;;;3.60;99.90;;;;;;6191061;23;20265;-91
2022/04/17 10:51:25;;;;;;;1.77;1.27;;;3.60;99.90;;;;;;6192979;23;20169;-92
2022/04/17 10:54:03;;;;;;;2.00;1.10;;;3.60;99.90;;;;;;6192362;23;20180;-91
2022/04/17 10:56:36;;;;;;;2.60;1.00;;;3.60;99.90;;;;;;6192891;23;20203;-91
2022/04/17 10:59:17;;;;;;;2.10;0.90;;;3.60;99.90;;;;;;6191687;23;20189;-92
2022/04/17 11:02:25;;;;;;;1.93;0.90;;;3.60;99.90;;;;;;6191905;23;20176;-91
2022/04/17 11:04:56;;;;;;;2.40;1.30;;;3.50;99.90;;;;;;6192936;23;20177;-91
2022/04/17 11:07:31;;;;;;;1.37;1.13;;;3.50;99.90;;;;;;6192018;23;20182;-92
2022/04/17 11:10:26;;;;;;;1.20;0.87;;;3.50;99.90;;;;;;6194034;23;20165;-92
2022/04/17 11:13:03;;;;;;;1.40;1.20;;;3.40;99.90;;;;;;6211583;23;20188;-90
2022/04/17 11:15:40;;;;;;;1.27;0.97;;;3.50;99.90;;;;;;6212129;23;20176;-91
2022/04/17 11:18:14;;;;;;;0.97;0.97;;;3.50;99.90;;;;;;6210829;23;20184;-92
2022/04/17 11:20:53;;;;;;;1.90;0.90;;;3.40;99.90;;;;;;6195288;23;20256;-92
2022/04/17 11:24:03;;;;;;;1.90;0.87;;;3.40;99.90;;;;;;6195742;23;20173;-93
2022/04/17 11:27:10;;;;;;;1.63;1.53;;;3.40;99.90;;;;;;6191332;23;20628;-91
2022/04/17 11:29:45;;;;;;;1.33;0.80;;;3.50;99.90;;;;;;6191837;23;20593;-92
2022/04/17 11:32:50;;;;;;;0.73;0.73;;;3.50;99.90;;;;;;6191765;23;20200;-93
2022/04/17 11:35:26;;;;;;;1.87;1.77;;;3.40;99.90;;;;;;6159311;23;20628;-92
2022/04/17 11:38:04;;;;;;;1.30;1.10;;;3.40;99.90;;;;;;6189693;23;20206;-92
2022/04/17 11:40:41;;;;;;;1.60;1.00;;;3.50;99.90;;;;;;6190534;23;20642;-91
2022/04/17 11:43:17;;;;;;;2.53;0.90;;;3.40;99.90;;;;;;6168021;23;20249;-92
2022/04/17 11:45:50;;;;;;;0.70;0.70;;;3.50;99.90;;;;;;6191505;23;20179;-92
2022/04/17 11:48:22;;;;;;;0.70;0.70;;;3.50;99.90;;;;;;6189551;23;20189;-90
2022/04/17 11:50:59;;;;;;;2.20;0.80;;;3.50;99.90;;;;;;6190486;23;20212;-91
2022/04/17 11:53:35;;;;;;;3.00;0.93;;;3.40;99.90;;;;;;6190530;23;20205;-91
2022/04/17 11:56:07;;;;;;;2.53;0.90;;;3.40;99.90;;;;;;6190413;23;20247;-92
2022/04/17 11:58:38;;;;;;;0.87;0.77;;;3.30;99.90;;;;;;6192616;23;20199;-92
2022/04/17 12:01:11;;;;;;;4.07;1.10;;;3.30;99.90;;;;;;6191791;23;20180;-91
2022/04/17 12:03:48;;;;;;;1.53;0.90;;;3.30;99.90;;;;;;6192348;23;20624;-90
2022/04/17 12:06:32;;;;;;;2.10;0.90;;;3.30;99.90;;;;;;6192791;23;20173;-91
2022/04/17 12:09:04;;;;;;;2.63;1.03;;;3.30;99.90;;;;;;6205798;23;20169;-91
2022/04/17 12:11:40;;;;;;;0.90;0.70;;;3.30;99.90;;;;;;6204147;23;20169;-91
2022/04/17 12:14:14;;;;;;;1.23;0.87;;;3.30;99.90;;;;;;6211238;23;20187;-93
2022/04/17 12:16:53;;;;;;;1.70;0.73;;;3.30;99.90;;;;;;6206061;23;20243;-92
2022/04/17 12:19:25;;;;;;;0.77;0.60;;;3.30;99.90;;;;;;6203538;23;20173;-91
2022/04/17 12:21:58;;;;;;;3.40;0.90;;;3.30;99.90;;;;;;6194148;23;20184;-92
2022/04/17 12:24:29;;;;;;;1.40;0.90;;;3.30;99.90;;;;;;6191464;23;20640;-93
2022/04/17 12:27:01;;;;;;;1.63;0.80;;;3.30;99.90;;;;;;6190939;23;20177;-93
2022/04/17 12:29:33;;;;;;;1.00;0.60;;;3.40;99.90;;;;;;6190327;23;20239;-91
2022/04/17 12:32:05;;;;;;;0.80;0.80;;;3.40;99.90;;;;;;6191355;23;20169;-91
2022/04/17 12:34:45;;;;;;;2.07;0.67;;;3.40;99.90;;;;;;6190292;23;20187;-91
2022/04/17 12:37:23;;;;;;;0.90;0.70;;;3.40;99.90;;;;;;6189814;23;20196;-92
2022/04/17 12:40:08;;;;;;;1.00;0.70;;;3.40;99.90;;;;;;6189764;23;20199;-91
2022/04/17 12:42:43;;;;;;;1.90;0.60;;;3.40;99.90;;;;;;6190442;23;20181;-91
2022/04/17 12:45:25;;;;;;;0.50;0.43;;;3.40;99.90;;;;;;6190498;23;20184;-92
2022/04/17 12:48:06;;;;;;;0.90;0.60;;;3.40;99.90;;;;;;6189651;23;20173;-93
2022/04/17 12:50:39;;;;;;;0.70;0.60;;;3.40;99.90;;;;;;6190416;23;20200;-92
2022/04/17 12:53:15;;;;;;;0.70;0.70;;;3.40;99.90;;;;;;6191177;23;20264;-90
2022/04/17 12:55:47;;;;;;;0.60;0.50;;;3.40;99.90;;;;;;6206659;23;20188;-90
2022/04/17 12:58:19;;;;;;;0.70;0.63;;;3.30;99.90;;;;;;6208317;23;20231;-90
2022/04/17 13:00:58;;;;;;;0.90;0.80;;;3.30;99.90;;;;;;6198769;23;20177;-91
2022/04/17 13:03:37;;;;;;;0.50;0.50;;;3.30;99.90;;;;;;6191875;23;20177;-91
2022/04/17 13:06:09;;;;;;;1.30;0.60;;;3.20;99.90;;;;;;6192081;23;20184;-91
2022/04/17 13:08:43;;;;;;;0.53;0.50;;;3.20;99.90;;;;;;6189650;23;20169;-90
2022/04/17 13:11:22;;;;;;;2.43;0.73;;;3.20;99.90;;;;;;6189990;23;20180;-91
2022/04/17 13:13:54;;;;;;;1.73;0.67;;;3.20;99.90;;;;;;6190579;23;20208;-90
2022/04/17 13:16:25;;;;;;;0.73;0.73;;;3.10;99.90;;;;;;6190145;23;20490;-90
2022/04/17 13:18:56;;;;;;;0.97;0.70;;;3.10;99.90;;;;;;6188899;23;20177;-90
2022/04/17 13:21:36;;;;;;;1.70;0.90;;;3.10;99.90;;;;;;6189995;23;20177;-90
2022/04/17 13:24:13;;;;;;;1.43;0.80;;;3.10;99.90;;;;;;6189304;23;20188;-89
2022/04/17 13:26:46;;;;;;;1.00;0.70;;;3.00;99.90;;;;;;6188964;23;20196;-89
2022/04/17 13:29:17;;;;;;;1.87;0.67;;;3.00;99.90;;;;;;6187496;23;20177;-90
2022/04/17 13:31:50;;;;;;;0.83;0.70;;;2.90;99.90;;;;;;6189586;23;20228;-90
2022/04/17 13:34:22;;;;;;;0.93;0.80;;;2.80;99.90;;;;;;6189455;23;20173;-90
2022/04/17 13:39:40;;;;;;;1.10;0.70;;;2.70;99.90;;;;;;6189550;23;20170;-90
2022/04/17 13:42:11;;;;;;;0.77;0.77;;;2.70;99.90;;;;;;6189565;23;20177;-90
2022/04/17 13:44:42;;;;;;;1.03;0.73;;;2.70;99.90;;;;;;6191612;23;20173;-91
2022/04/17 13:47:13;;;;;;;1.53;0.80;;;2.70;99.90;;;;;;6187967;23;20181;-94
2022/04/17 13:49:44;;;;;;;0.93;0.70;;;2.80;99.90;;;;;;6189592;23;20185;-91
2022/04/17 13:52:17;;;;;;;1.33;0.73;;;2.80;99.90;;;;;;6192294;23;20169;-91
2022/04/17 13:54:53;;;;;;;0.80;0.70;;;2.90;99.90;;;;;;6195082;23;20193;-90
2022/04/17 13:57:25;;;;;;;1.73;0.60;;;3.00;99.90;;;;;;6190887;23;20196;-90
2022/04/17 13:59:56;;;;;;;1.57;0.90;;;3.00;99.90;;;;;;6191691;23;20173;-91
2022/04/17 14:02:27;;;;;;;1.37;0.83;;;3.10;99.90;;;;;;6192050;23;20176;-90
2022/04/17 14:04:58;;;;;;;2.23;0.80;;;3.30;99.90;;;;;;6190895;23;20539;-89
2022/04/17 14:07:31;;;;;;;1.17;0.87;;;3.40;99.90;;;;;;6192749;23;20188;-90
2022/04/17 14:10:08;;;;;;;0.80;0.80;;;3.40;99.90;;;;;;6169126;23;20427;-89
2022/04/17 14:12:40;;;;;;;0.97;0.60;;;3.50;99.90;;;;;;6193757;23;20240;-89
2022/04/17 14:15:12;;;;;;;0.87;0.80;;;3.50;99.90;;;;;;6191044;23;20244;-90
2022/04/17 14:17:43;;;;;;;2.67;0.70;;;3.60;99.90;;;;;;6193469;23;20252;-89
2022/04/17 14:20:14;;;;;;;0.70;0.60;;;3.60;99.90;;;;;;6191375;23;20181;-90
2022/04/17 14:22:46;;;;;;;1.20;0.80;;;3.60;99.90;;;;;;6193044;23;20644;-90
2022/04/17 14:25:21;;;;;;;2.43;1.00;;;3.60;99.90;;;;;;6191439;23;20510;-90